Time;durP1;ratioP1;P1;durP2;ratioP2;P2;SDS_P1;SDS_P2;PMS_P1;PMS_P2;Temp;Humidity;BMP_temperature;BMP_pressure;BME280_temperature;BME280_humidity;BME280_pressure;Samples;Min_cycle;Max_cycle;Signal;HPM_P1;HPM_P2
2023/05/25 00:01:09;;;;;;;26.52;11.10;;;11.60;99.90;;;;;;4939256;29;20048;-73
2023/05/25 00:03:34;;;;;;;29.70;10.48;;;11.60;99.90;;;;;;4939691;29;20048;-73
2023/05/25 00:06:00;;;;;;;22.75;10.05;;;11.50;99.90;;;;;;4908031;29;20047;-73
2023/05/25 00:08:27;;;;;;;33.28;11.13;;;11.60;99.90;;;;;;4937377;29;20086;-72
2023/05/25 00:10:52;;;;;;;25.67;10.40;;;11.50;99.90;;;;;;4935765;29;20100;-73
2023/05/25 00:13:18;;;;;;;28.92;11.15;;;11.60;99.90;;;;;;4934252;29;20075;-73
2023/05/25 00:15:44;;;;;;;29.42;10.40;;;11.50;99.90;;;;;;4922505;29;20066;-73
2023/05/25 00:18:10;;;;;;;28.60;11.15;;;11.50;99.90;;;;;;4922298;29;20055;-73
2023/05/25 00:20:36;;;;;;;21.98;10.55;;;11.60;99.90;;;;;;4903814;29;20086;-73
2023/05/25 00:23:02;;;;;;;21.77;9.38;;;11.60;99.90;;;;;;4933990;29;20134;-73
2023/05/25 00:25:28;;;;;;;25.98;10.52;;;11.50;99.90;;;;;;4940690;28;20050;-73
2023/05/25 00:27:54;;;;;;;20.45;9.65;;;11.50;99.90;;;;;;4911954;29;20441;-73
2023/05/25 00:30:19;;;;;;;24.95;10.40;;;11.50;99.90;;;;;;4956227;28;20133;-73
2023/05/25 00:32:46;;;;;;;26.83;11.55;;;11.50;99.90;;;;;;4942671;29;20134;-73
2023/05/25 00:35:12;;;;;;;23.98;10.50;;;11.50;99.90;;;;;;4904117;29;20062;-73
2023/05/25 00:37:37;;;;;;;20.35;10.70;;;11.40;99.90;;;;;;4936418;29;20051;-73
2023/05/25 00:40:06;;;;;;;24.90;10.60;;;11.40;99.90;;;;;;4938151;29;20051;-73
2023/05/25 00:42:33;;;;;;;21.83;10.68;;;11.40;99.90;;;;;;4920556;29;20047;-72
2023/05/25 00:44:58;;;;;;;23.13;9.82;;;11.40;99.90;;;;;;4938708;29;20645;-73
2023/05/25 00:47:24;;;;;;;24.88;10.57;;;11.40;99.90;;;;;;4939136;29;20433;-73
2023/05/25 00:49:51;;;;;;;26.25;11.63;;;11.30;99.90;;;;;;4923718;29;20062;-73
2023/05/25 00:52:17;;;;;;;30.20;12.32;;;11.30;99.90;;;;;;4939201;29;20126;-73
2023/05/25 00:54:44;;;;;;;30.95;12.30;;;11.30;99.90;;;;;;4938699;29;20154;-73
2023/05/25 00:57:11;;;;;;;24.27;11.10;;;11.20;99.90;;;;;;4945440;28;20056;-73
2023/05/25 00:59:42;;;;;;;26.13;11.00;;;11.10;99.90;;;;;;4907301;29;20039;-73
2023/05/25 01:02:09;;;;;;;23.10;10.50;;;11.10;99.90;;;;;;4928897;29;20047;-73
2023/05/25 01:04:40;;;;;;;22.17;11.35;;;11.10;99.90;;;;;;4938762;29;20074;-73
2023/05/25 01:07:07;;;;;;;30.42;13.65;;;11.00;99.90;;;;;;4941045;28;20047;-73
2023/05/25 01:09:33;;;;;;;29.83;13.30;;;11.00;99.90;;;;;;4888984;29;20048;-73
2023/05/25 01:12:00;;;;;;;27.27;12.85;;;10.80;99.90;;;;;;4927629;29;20513;-73
2023/05/25 01:14:26;;;;;;;25.58;11.27;;;10.80;99.90;;;;;;4912151;29;20137;-73
2023/05/25 01:16:52;;;;;;;21.10;10.15;;;10.90;99.90;;;;;;4937976;28;20047;-73
2023/05/25 01:19:20;;;;;;;27.92;11.25;;;10.90;99.90;;;;;;4933699;29;20054;-73
2023/05/25 01:21:48;;;;;;;;;;;11.00;99.90;;;;;;4944337;29;20498;-73
2023/05/25 01:24:43;;;;;;;28.33;11.25;;;11.00;99.90;;;;;;4956970;28;19914;-73
2023/05/25 01:27:20;;;;;;;19.85;11.32;;;10.90;99.90;;;;;;4946134;28;20058;-73
2023/05/25 01:29:45;;;;;;;26.30;12.60;;;10.80;99.90;;;;;;4906372;29;20047;-73
2023/05/25 01:32:12;;;;;;;31.88;13.05;;;10.90;99.90;;;;;;4922202;29;20361;-73
2023/05/25 01:34:39;;;;;;;21.88;12.32;;;10.80;99.90;;;;;;4923681;29;20474;-73
2023/05/25 01:37:04;;;;;;;22.27;12.90;;;10.80;99.90;;;;;;4942211;28;20559;-73
2023/05/25 01:39:31;;;;;;;27.95;11.93;;;10.80;99.90;;;;;;4919680;29;20138;-73
2023/05/25 01:41:57;;;;;;;36.67;14.95;;;10.80;99.90;;;;;;4906189;29;20121;-73
2023/05/25 01:44:23;;;;;;;24.40;12.13;;;10.80;99.90;;;;;;4954462;29;20341;-73
2023/05/25 01:47:07;;;;;;;25.95;11.00;;;10.80;99.90;;;;;;4920289;29;20066;-73
2023/05/25 01:49:36;;;;;;;27.33;12.80;;;10.70;99.90;;;;;;4937646;29;20141;-73
2023/05/25 01:52:18;;;;;;;33.88;12.93;;;10.70;99.90;;;;;;4937177;28;20051;-73
2023/05/25 01:54:51;;;;;;;24.10;12.10;;;10.60;99.90;;;;;;4939281;29;20043;-73
2023/05/25 01:57:18;;;;;;;25.02;11.82;;;10.60;99.90;;;;;;4938497;29;20073;-73
2023/05/25 01:59:45;;;;;;;27.25;12.65;;;10.60;99.90;;;;;;4921545;29;20515;-73
2023/05/25 02:02:15;;;;;;;31.90;12.07;;;10.50;99.90;;;;;;4906997;28;20051;-73
2023/05/25 02:04:41;;;;;;;25.92;11.90;;;10.50;99.90;;;;;;4906620;29;20053;-73
2023/05/25 02:07:07;;;;;;;28.13;12.98;;;10.60;99.90;;;;;;4921592;29;20043;-73
2023/05/25 02:09:33;;;;;;;28.63;13.05;;;10.50;99.90;;;;;;4946292;29;20051;-73
2023/05/25 02:11:58;;;;;;;26.58;12.65;;;10.50;99.90;;;;;;4919116;29;20095;-72
2023/05/25 02:14:24;;;;;;;27.42;13.23;;;10.50;99.90;;;;;;4936649;29;20059;-73
2023/05/25 02:16:50;;;;;;;25.55;12.65;;;10.50;99.90;;;;;;4927370;29;20063;-73
2023/05/25 02:19:16;;;;;;;29.80;13.55;;;10.50;99.90;;;;;;4937098;29;20058;-73
2023/05/25 02:21:43;;;;;;;25.25;12.20;;;10.50;99.90;;;;;;4935092;29;20491;-73
2023/05/25 02:24:09;;;;;;;26.10;12.98;;;10.40;99.90;;;;;;4922312;29;20054;-72
2023/05/25 02:26:36;;;;;;;31.60;13.23;;;10.40;99.90;;;;;;4937021;29;20051;-73
2023/05/25 02:29:03;;;;;;;25.83;11.82;;;10.40;99.90;;;;;;4935778;29;20039;-73
2023/05/25 02:31:29;;;;;;;29.45;13.13;;;10.30;99.90;;;;;;4937677;28;20067;-73
2023/05/25 02:33:55;;;;;;;25.80;12.85;;;10.30;99.90;;;;;;4926943;28;20081;-73
2023/05/25 02:36:21;;;;;;;25.48;13.05;;;10.30;99.90;;;;;;4942285;28;20460;-72
2023/05/25 02:38:48;;;;;;;31.05;13.57;;;10.30;99.90;;;;;;4918652;29;20490;-73
2023/05/25 02:41:25;;;;;;;26.83;12.87;;;10.30;99.90;;;;;;4936262;29;20047;-73
2023/05/25 02:43:52;;;;;;;25.20;12.32;;;10.30;99.90;;;;;;4958262;28;20286;-73
2023/05/25 02:46:19;;;;;;;28.13;13.50;;;10.20;99.90;;;;;;4961391;28;20046;-73
2023/05/25 02:48:46;;;;;;;32.72;13.02;;;10.20;99.90;;;;;;4941264;29;20043;-72
2023/05/25 02:51:11;;;;;;;26.92;12.48;;;10.30;99.90;;;;;;4947902;28;20749;-73
2023/05/25 02:53:37;;;;;;;28.83;14.95;;;10.20;99.90;;;;;;4925196;28;20043;-73
2023/05/25 02:56:09;;;;;;;30.45;13.90;;;10.20;99.90;;;;;;4937896;29;20162;-73
2023/05/25 02:58:36;;;;;;;29.27;13.15;;;10.20;99.90;;;;;;4957377;29;20483;-73
2023/05/25 03:01:04;;;;;;;24.90;12.98;;;10.20;99.90;;;;;;4927970;28;20054;-73
2023/05/25 03:03:29;;;;;;;31.38;13.85;;;10.20;99.90;;;;;;4931854;28;20043;-73
2023/05/25 03:05:56;;;;;;;31.95;13.95;;;10.10;99.90;;;;;;4924820;29;20050;-73
2023/05/25 03:08:22;;;;;;;24.85;12.40;;;10.10;99.90;;;;;;4945097;29;20372;-73
2023/05/25 03:10:47;;;;;;;29.02;14.10;;;10.10;99.90;;;;;;4940574;29;20131;-73
2023/05/25 03:13:13;;;;;;;29.02;14.45;;;10.00;99.90;;;;;;4924965;29;20186;-73
2023/05/25 03:15:39;;;;;;;27.80;14.40;;;10.00;99.90;;;;;;4924040;29;20511;-73
2023/05/25 03:18:06;;;;;;;30.23;14.30;;;9.90;99.90;;;;;;4923911;29;20043;-73
2023/05/25 03:20:32;;;;;;;24.60;14.20;;;9.90;99.90;;;;;;4926719;28;20047;-73
2023/05/25 03:22:57;;;;;;;27.30;14.00;;;9.90;99.90;;;;;;4944735;29;20074;-73
2023/05/25 03:25:23;;;;;;;27.73;14.38;;;9.80;99.90;;;;;;4941090;29;20106;-72
2023/05/25 03:27:52;;;;;;;29.65;15.05;;;9.80;99.90;;;;;;4921799;29;20421;-73
2023/05/25 03:30:21;;;;;;;25.23;14.48;;;9.90;99.90;;;;;;4908544;28;20535;-73
2023/05/25 03:32:47;;;;;;;;;;;9.80;99.90;;;;;;4934818;28;20050;-73
2023/05/25 03:35:12;;;;;;;31.95;15.20;;;9.90;99.90;;;;;;4962438;28;19917;-73
2023/05/25 03:37:38;;;;;;;31.52;15.82;;;9.90;99.90;;;;;;4940240;29;20093;-73
2023/05/25 03:40:04;;;;;;;32.90;16.27;;;9.90;99.90;;;;;;4948054;28;20396;-73
2023/05/25 03:42:30;;;;;;;27.30;14.70;;;9.80;99.90;;;;;;4972271;28;20058;-73
2023/05/25 03:44:56;;;;;;;30.98;15.55;;;9.80;99.90;;;;;;4951407;29;20039;-73
2023/05/25 03:47:21;;;;;;;30.20;16.40;;;9.80;99.90;;;;;;4928735;29;20043;-73
2023/05/25 03:49:47;;;;;;;26.98;14.05;;;9.80;99.90;;;;;;4939844;29;20085;-73
2023/05/25 03:52:13;;;;;;;28.75;16.13;;;9.80;99.90;;;;;;4959651;28;20078;-73
2023/05/25 03:54:38;;;;;;;29.13;14.80;;;9.80;99.90;;;;;;4924765;29;20047;-73
2023/05/25 03:57:05;;;;;;;27.73;15.10;;;9.80;99.90;;;;;;4908478;29;20046;-73
2023/05/25 03:59:30;;;;;;;27.33;15.00;;;9.70;99.90;;;;;;4923277;29;20047;-73
2023/05/25 04:01:56;;;;;;;27.98;14.25;;;9.70;99.90;;;;;;4940774;28;20063;-73
2023/05/25 04:04:22;;;;;;;32.55;16.80;;;9.60;99.90;;;;;;4937053;29;20047;-73
2023/05/25 04:06:47;;;;;;;41.65;20.00;;;9.50;99.90;;;;;;4921009;29;20058;-72
2023/05/25 04:09:14;;;;;;;35.40;19.98;;;9.10;99.90;;;;;;4923362;29;20054;-73
2023/05/25 04:11:40;;;;;;;38.05;19.48;;;9.10;99.90;;;;;;4939860;28;20050;-72
2023/05/25 04:14:06;;;;;;;39.13;20.58;;;9.10;99.90;;;;;;4962373;28;20047;-73
2023/05/25 04:16:33;;;;;;;42.65;19.38;;;9.20;99.90;;;;;;4945971;28;20054;-73
2023/05/25 04:18:59;;;;;;;39.53;20.20;;;9.20;99.90;;;;;;4921802;29;20047;-73
2023/05/25 04:21:28;;;;;;;35.97;19.73;;;9.20;99.90;;;;;;4905113;28;20372;-73
2023/05/25 04:23:53;;;;;;;;;;;9.20;99.90;;;;;;4947123;28;20073;-72
2023/05/25 04:26:19;;;;;;;33.25;18.70;;;9.20;99.90;;;;;;4939427;29;20324;-73
2023/05/25 04:28:45;;;;;;;36.85;18.88;;;9.30;99.90;;;;;;4937783;29;20483;-73
2023/05/25 04:31:12;;;;;;;37.50;19.85;;;9.40;99.90;;;;;;4922427;29;20126;-73
2023/05/25 04:33:38;;;;;;;33.30;17.38;;;9.40;99.90;;;;;;4929087;29;20055;-73
2023/05/25 04:36:04;;;;;;;37.40;20.08;;;9.50;99.90;;;;;;4921126;29;20074;-73
2023/05/25 04:38:32;;;;;;;37.53;19.02;;;9.50;99.90;;;;;;4904475;29;20055;-73
2023/05/25 04:41:05;;;;;;;53.77;24.87;;;9.50;99.90;;;;;;4909390;29;20047;-73
2023/05/25 04:43:31;;;;;;;47.90;25.13;;;9.40;99.90;;;;;;4922294;29;20075;-74
2023/05/25 04:45:58;;;;;;;40.20;20.98;;;9.40;99.90;;;;;;4939627;29;20122;-74
2023/05/25 04:48:27;;;;;;;38.65;21.05;;;9.50;99.90;;;;;;4960609;28;20571;-74
2023/05/25 04:50:54;;;;;;;36.17;20.83;;;9.50;99.90;;;;;;4941422;29;20047;-73
2023/05/25 04:53:24;;;;;;;38.03;21.33;;;9.60;99.90;;;;;;4942197;28;20507;-73
2023/05/25 04:55:50;;;;;;;44.00;23.02;;;9.60;99.90;;;;;;4939051;29;20069;-73
2023/05/25 04:58:16;;;;;;;40.20;22.35;;;9.30;99.90;;;;;;4936008;29;20439;-73
2023/05/25 05:00:41;;;;;;;38.97;22.23;;;9.30;99.90;;;;;;4924762;29;20475;-73
2023/05/25 05:03:07;;;;;;;45.10;23.88;;;9.20;99.90;;;;;;4946638;28;20078;-73
2023/05/25 05:05:34;;;;;;;39.88;22.30;;;9.20;99.90;;;;;;4938299;29;20050;-73
2023/05/25 05:08:02;;;;;;;39.28;22.17;;;9.30;99.90;;;;;;4942425;29;20490;-72
2023/05/25 05:10:28;;;;;;;45.50;22.70;;;9.40;99.90;;;;;;4923169;29;20130;-73
2023/05/25 05:12:54;;;;;;;42.78;23.95;;;9.40;99.90;;;;;;4926443;28;20133;-73
2023/05/25 05:15:20;;;;;;;44.58;23.05;;;9.40;99.90;;;;;;4907969;29;20047;-73
2023/05/25 05:17:46;;;;;;;41.17;22.13;;;9.50;99.90;;;;;;4944474;29;20117;-73
2023/05/25 05:20:12;;;;;;;41.13;21.65;;;9.40;99.90;;;;;;4935202;29;20081;-72
2023/05/25 05:22:37;;;;;;;45.22;21.48;;;9.40;99.90;;;;;;4937994;28;20082;-73
2023/05/25 05:25:04;;;;;;;42.10;21.00;;;9.50;99.90;;;;;;4925292;29;20057;-73
2023/05/25 05:27:29;;;;;;;44.00;21.83;;;9.60;99.90;;;;;;4943436;29;20047;-73
2023/05/25 05:29:55;;;;;;;37.58;21.40;;;9.60;99.90;;;;;;4938137;29;20539;-73
2023/05/25 05:32:22;;;;;;;38.63;21.30;;;9.60;99.90;;;;;;4955321;28;20130;-73
2023/05/25 05:34:48;;;;;;;43.05;21.55;;;9.70;99.90;;;;;;4941800;29;20043;-73
2023/05/25 05:37:14;;;;;;;36.80;21.85;;;9.80;99.90;;;;;;4935643;29;20055;-73
2023/05/25 05:39:40;;;;;;;41.15;19.70;;;9.70;99.90;;;;;;4937213;29;20051;-73
2023/05/25 05:42:06;;;;;;;41.63;21.90;;;9.70;99.90;;;;;;4937849;28;20051;-73
2023/05/25 05:44:32;;;;;;;39.10;20.25;;;9.70;99.90;;;;;;4927732;28;20531;-73
2023/05/25 05:47:01;;;;;;;41.25;20.05;;;9.70;99.90;;;;;;4921331;29;20123;-72
2023/05/25 05:49:27;;;;;;;36.80;20.98;;;9.60;99.90;;;;;;4922823;29;20314;-73
2023/05/25 05:51:53;;;;;;;37.92;19.75;;;9.50;99.90;;;;;;4918711;28;20051;-73
2023/05/25 05:54:18;;;;;;;42.60;21.50;;;9.70;99.90;;;;;;4926758;28;20047;-73
2023/05/25 05:56:44;;;;;;;30.88;19.63;;;9.60;99.90;;;;;;4942550;28;20072;-73
2023/05/25 05:59:10;;;;;;;35.80;21.98;;;9.60;99.90;;;;;;4922597;29;20058;-73
2023/05/25 06:01:36;;;;;;;38.10;23.80;;;9.70;99.90;;;;;;4934419;29;20476;-73
2023/05/25 06:04:02;;;;;;;44.72;23.20;;;9.60;99.90;;;;;;4920912;29;20050;-73
2023/05/25 06:06:27;;;;;;;40.85;23.02;;;9.70;99.90;;;;;;4908962;28;20061;-72
2023/05/25 06:08:53;;;;;;;37.78;20.17;;;9.70;99.90;;;;;;4938793;29;20472;-73
2023/05/25 06:11:19;;;;;;;35.13;21.35;;;9.70;99.90;;;;;;4937988;29;20058;-73
2023/05/25 06:13:46;;;;;;;38.88;21.30;;;9.60;99.90;;;;;;4941541;28;20126;-73
2023/05/25 06:16:12;;;;;;;39.80;21.67;;;9.70;99.90;;;;;;4905156;29;20502;-73
2023/05/25 06:18:38;;;;;;;42.00;22.05;;;9.70;99.90;;;;;;4921599;29;20051;-73
2023/05/25 06:21:04;;;;;;;36.63;23.02;;;9.80;99.90;;;;;;4937613;29;20126;-73
2023/05/25 06:23:30;;;;;;;41.78;22.95;;;9.80;99.90;;;;;;4955034;28;20519;-72
2023/05/25 06:25:56;;;;;;;37.83;22.63;;;9.80;99.90;;;;;;4921038;29;20090;-73
2023/05/25 06:28:22;;;;;;;42.28;21.90;;;9.80;99.90;;;;;;4937320;29;20047;-73
2023/05/25 06:30:48;;;;;;;36.40;23.15;;;9.90;99.90;;;;;;4931401;29;20043;-73
2023/05/25 06:33:13;;;;;;;40.58;25.10;;;9.80;99.90;;;;;;4927901;29;20623;-73
2023/05/25 06:35:39;;;;;;;42.10;23.75;;;9.80;99.90;;;;;;4940924;29;20083;-72
2023/05/25 06:38:05;;;;;;;45.70;23.95;;;9.90;99.90;;;;;;4945636;28;20058;-73
2023/05/25 06:40:31;;;;;;;46.92;23.80;;;9.90;99.90;;;;;;4939184;29;20055;-73
2023/05/25 06:42:58;;;;;;;38.60;22.00;;;10.00;99.90;;;;;;4946818;29;20044;-73
2023/05/25 06:45:24;;;;;;;39.38;21.85;;;10.00;99.90;;;;;;4957190;29;20050;-73
2023/05/25 06:47:49;;;;;;;37.17;21.33;;;9.90;99.90;;;;;;4941082;29;20051;-73
2023/05/25 06:50:16;;;;;;;41.20;22.23;;;9.90;99.90;;;;;;4927194;29;20421;-73
2023/05/25 06:52:42;;;;;;;41.80;22.80;;;9.80;99.90;;;;;;4963847;28;20589;-73
2023/05/25 06:55:08;;;;;;;42.35;22.73;;;9.80;99.90;;;;;;4940956;28;20055;-73
2023/05/25 06:57:34;;;;;;;39.13;23.63;;;9.90;99.90;;;;;;4941418;28;20209;-73
2023/05/25 07:00:00;;;;;;;43.20;24.10;;;9.90;99.90;;;;;;4943603;29;20047;-73
2023/05/25 07:02:26;;;;;;;38.35;23.90;;;9.90;99.90;;;;;;4941457;29;20086;-72
2023/05/25 07:04:52;;;;;;;43.17;22.67;;;10.00;99.90;;;;;;4940012;28;20084;-72
2023/05/25 07:07:18;;;;;;;41.60;22.08;;;10.00;99.90;;;;;;4946439;28;20093;-73
2023/05/25 07:09:44;;;;;;;41.25;22.63;;;10.10;99.90;;;;;;4927730;29;20058;-73
2023/05/25 07:12:10;;;;;;;40.80;22.70;;;10.00;99.90;;;;;;4941982;29;20317;-73
2023/05/25 07:14:36;;;;;;;44.17;24.08;;;10.00;99.90;;;;;;4941596;28;20113;-73
2023/05/25 07:17:02;;;;;;;47.33;24.65;;;10.00;99.90;;;;;;4924961;29;20134;-73
2023/05/25 07:19:29;;;;;;;45.00;24.45;;;10.00;99.90;;;;;;4959369;28;20806;-73
2023/05/25 07:21:55;;;;;;;40.55;23.77;;;10.10;99.90;;;;;;4941253;29;20050;-73
2023/05/25 07:24:21;;;;;;;41.05;24.13;;;10.10;99.90;;;;;;4913913;28;20055;-73
2023/05/25 07:26:48;;;;;;;47.05;24.33;;;10.00;99.90;;;;;;4959325;28;20054;-73
2023/05/25 07:29:13;;;;;;;43.38;24.40;;;10.10;99.90;;;;;;4923685;29;20364;-73
2023/05/25 07:31:39;;;;;;;44.45;24.48;;;10.10;99.90;;;;;;4940625;29;20047;-73
2023/05/25 07:34:05;;;;;;;45.75;25.70;;;10.20;99.90;;;;;;4943199;28;20043;-72
2023/05/25 07:36:31;;;;;;;42.72;23.67;;;10.20;99.90;;;;;;4927005;28;20062;-73
2023/05/25 07:38:57;;;;;;;41.30;23.85;;;10.10;99.90;;;;;;4929550;29;20061;-72
2023/05/25 07:41:22;;;;;;;45.25;24.35;;;10.10;99.90;;;;;;4940421;29;20055;-73
2023/05/25 07:43:51;;;;;;;45.75;25.23;;;10.20;99.90;;;;;;4941243;29;20657;-73
2023/05/25 07:46:19;;;;;;;53.58;26.25;;;10.20;99.90;;;;;;4929326;28;20408;-73
2023/05/25 07:48:45;;;;;;;38.15;25.23;;;10.20;99.90;;;;;;4916314;28;20047;-73
2023/05/25 07:51:11;;;;;;;47.17;24.30;;;10.20;99.90;;;;;;4940270;29;20399;-73
2023/05/25 07:53:36;;;;;;;42.97;24.02;;;10.30;99.90;;;;;;4945521;29;20056;-73
2023/05/25 07:56:03;;;;;;;41.75;22.70;;;10.40;99.90;;;;;;4927085;28;20047;-72
2023/05/25 07:58:30;;;;;;;39.05;22.75;;;10.50;99.90;;;;;;4944159;28;20495;-73
2023/05/25 08:00:55;;;;;;;40.33;24.00;;;10.50;99.90;;;;;;4920913;29;20110;-72
2023/05/25 08:03:21;;;;;;;35.47;22.73;;;10.50;99.90;;;;;;4939647;29;20102;-73
2023/05/25 08:05:47;;;;;;;36.78;24.15;;;10.60;99.90;;;;;;4941010;28;20036;-73
2023/05/25 08:08:13;;;;;;;42.33;23.85;;;10.60;99.90;;;;;;4928530;28;20050;-73
2023/05/25 08:10:39;;;;;;;38.42;24.35;;;10.60;99.90;;;;;;4956012;29;20134;-73
2023/05/25 08:13:04;;;;;;;45.65;24.92;;;10.50;99.90;;;;;;4942497;29;20043;-73
2023/05/25 08:15:30;;;;;;;41.90;24.27;;;10.60;99.90;;;;;;4959383;28;20058;-73
2023/05/25 08:17:57;;;;;;;37.58;23.35;;;10.60;99.90;;;;;;4940202;29;20047;-73
2023/05/25 08:20:24;;;;;;;39.97;23.75;;;10.60;99.90;;;;;;4923048;29;20070;-73
2023/05/25 08:22:54;;;;;;;33.42;21.95;;;10.70;99.90;;;;;;4945831;29;20058;-73
2023/05/25 08:25:20;;;;;;;40.55;23.20;;;10.80;99.90;;;;;;4924574;28;20069;-73
2023/05/25 08:27:46;;;;;;;37.40;22.88;;;10.80;99.90;;;;;;4924076;29;20046;-73
2023/05/25 08:30:12;;;;;;;33.65;20.48;;;10.90;99.90;;;;;;4941153;29;20043;-73
2023/05/25 08:32:37;;;;;;;31.40;21.42;;;11.00;99.90;;;;;;4945067;29;20058;-73
2023/05/25 08:35:06;;;;;;;34.60;21.73;;;11.00;99.90;;;;;;4939100;29;20054;-73
2023/05/25 08:37:33;;;;;;;40.47;24.05;;;11.10;99.90;;;;;;4926005;28;20416;-73
2023/05/25 08:40:01;;;;;;;37.33;23.25;;;11.10;99.90;;;;;;4930281;29;20071;-73
2023/05/25 08:42:27;;;;;;;40.35;24.48;;;11.10;99.90;;;;;;4938793;29;20634;-73
2023/05/25 08:44:53;;;;;;;40.42;23.38;;;11.20;99.90;;;;;;4910087;29;20043;-73
2023/05/25 08:47:21;;;;;;;36.08;24.05;;;11.30;99.90;;;;;;4926488;28;20100;-73
2023/05/25 08:49:47;;;;;;;34.83;22.27;;;11.40;99.90;;;;;;4955667;28;20074;-73
2023/05/25 08:52:14;;;;;;;39.55;22.73;;;11.40;99.90;;;;;;4938870;29;20099;-73
2023/05/25 08:54:42;;;;;;;36.30;22.38;;;11.50;99.90;;;;;;4927123;29;20507;-73
2023/05/25 08:57:14;;;;;;;34.97;22.00;;;11.60;99.90;;;;;;4943162;28;20507;-73
2023/05/25 08:59:43;;;;;;;31.90;21.88;;;11.50;99.90;;;;;;4958956;28;20484;-73
2023/05/25 09:02:23;;;;;;;35.03;21.10;;;11.60;99.90;;;;;;4955936;28;20130;-73
2023/05/25 09:04:49;;;;;;;41.17;21.48;;;11.80;99.90;;;;;;4960774;28;20046;-72
2023/05/25 09:07:15;;;;;;;41.47;22.67;;;11.80;99.90;;;;;;4928471;28;20043;-73
2023/05/25 09:09:41;;;;;;;32.65;19.48;;;11.80;99.90;;;;;;4906376;29;20039;-73
2023/05/25 09:12:08;;;;;;;33.78;19.10;;;11.90;99.90;;;;;;4934990;29;20048;-73
2023/05/25 09:14:36;;;;;;;33.38;20.60;;;11.90;99.90;;;;;;4939992;28;20086;-73
2023/05/25 09:17:02;;;;;;;34.53;19.75;;;11.90;99.90;;;;;;4928906;28;20638;-73
2023/05/25 09:19:27;;;;;;;34.72;19.25;;;11.90;99.90;;;;;;4894132;29;20061;-73
2023/05/25 09:21:53;;;;;;;35.40;19.42;;;11.90;99.90;;;;;;4923053;29;20046;-73
2023/05/25 09:24:21;;;;;;;36.88;18.58;;;12.10;99.90;;;;;;4954389;28;20046;-73
2023/05/25 09:26:48;;;;;;;34.30;18.88;;;12.20;99.90;;;;;;4913492;28;20054;-73
2023/05/25 09:29:15;;;;;;;32.65;20.15;;;12.20;99.90;;;;;;4928337;29;20338;-73
2023/05/25 09:31:41;;;;;;;36.50;21.60;;;12.10;99.90;;;;;;4906850;29;20062;-73
2023/05/25 09:34:13;;;;;;;37.55;22.08;;;12.00;99.90;;;;;;4934392;28;20056;-73
2023/05/25 09:36:42;;;;;;;32.25;20.10;;;12.10;99.90;;;;;;4928230;28;20061;-73
2023/05/25 09:39:11;;;;;;;31.30;19.67;;;11.90;99.90;;;;;;4909424;29;20441;-73
2023/05/25 09:41:39;;;;;;;30.38;18.95;;;12.00;99.90;;;;;;4896013;29;20054;-72
2023/05/25 09:44:06;;;;;;;29.70;16.98;;;12.00;99.90;;;;;;4944413;29;20043;-73
2023/05/25 09:46:35;;;;;;;26.98;16.83;;;12.00;99.90;;;;;;4938094;29;20066;-72
2023/05/25 09:49:08;;;;;;;24.58;16.48;;;11.80;99.90;;;;;;4919084;29;20044;-73
2023/05/25 09:51:35;;;;;;;27.67;16.77;;;11.90;99.90;;;;;;4937979;29;20054;-73
2023/05/25 09:54:02;;;;;;;30.02;15.43;;;11.70;99.90;;;;;;4926166;28;20046;-73
2023/05/25 09:56:31;;;;;;;28.60;15.98;;;11.60;99.90;;;;;;4906710;29;20047;-73
2023/05/25 09:58:57;;;;;;;24.90;16.20;;;11.60;99.90;;;;;;4921568;29;20468;-73
2023/05/25 10:01:23;;;;;;;26.27;16.83;;;11.60;99.90;;;;;;4937510;29;20053;-73
2023/05/25 10:03:55;;;;;;;27.83;15.30;;;11.70;99.90;;;;;;4939635;28;20738;-73
2023/05/25 10:06:22;;;;;;;24.58;15.30;;;11.80;99.90;;;;;;4907564;29;20129;-73
2023/05/25 10:08:48;;;;;;;24.85;15.32;;;11.80;99.90;;;;;;4942129;29;20046;-73
2023/05/25 10:11:14;;;;;;;29.65;15.00;;;11.80;99.90;;;;;;4937469;29;20055;-72
2023/05/25 10:13:40;;;;;;;24.92;14.20;;;11.90;99.90;;;;;;4922203;28;20055;-73
2023/05/25 10:16:07;;;;;;;23.70;13.18;;;12.00;99.90;;;;;;4923712;29;20054;-73
2023/05/25 10:18:34;;;;;;;20.00;13.45;;;12.10;99.90;;;;;;4926121;29;20134;-74
2023/05/25 10:21:01;;;;;;;23.20;13.73;;;12.20;99.90;;;;;;4937871;29;20051;-73
2023/05/25 10:23:32;;;;;;;25.15;13.02;;;12.40;99.90;;;;;;4923819;28;20098;-74
2023/05/25 10:25:57;;;;;;;27.42;12.57;;;12.30;99.90;;;;;;4923638;29;20476;-73
2023/05/25 10:28:28;;;;;;;23.90;11.65;;;12.40;99.90;;;;;;4923261;29;20054;-73
2023/05/25 10:30:55;;;;;;;26.48;12.10;;;12.50;99.90;;;;;;4933432;29;20658;-73
2023/05/25 10:33:21;;;;;;;27.77;13.53;;;12.60;99.90;;;;;;4946244;28;20054;-73
2023/05/25 10:35:49;;;;;;;26.60;12.80;;;12.50;99.90;;;;;;4938945;29;20114;-73
2023/05/25 10:38:14;;;;;;;26.92;14.18;;;12.70;99.90;;;;;;4926545;29;20043;-73
2023/05/25 10:40:40;;;;;;;20.88;11.65;;;12.80;99.90;;;;;;4937389;29;20445;-73
2023/05/25 10:43:06;;;;;;;22.55;12.45;;;12.60;99.90;;;;;;4912890;28;20039;-72
2023/05/25 10:45:33;;;;;;;20.88;11.77;;;12.80;99.90;;;;;;4940639;29;20053;-73
2023/05/25 10:47:59;;;;;;;22.25;10.98;;;12.90;99.90;;;;;;4939995;29;20475;-73
2023/05/25 10:50:25;;;;;;;22.50;11.23;;;13.10;99.90;;;;;;4937024;29;20055;-73
2023/05/25 10:53:12;;;;;;;18.88;10.68;;;13.00;99.90;;;;;;4937876;28;20058;-73
2023/05/25 10:55:58;;;;;;;19.13;10.70;;;13.10;99.90;;;;;;4936767;29;20044;-73
2023/05/25 10:58:25;;;;;;;23.88;10.18;;;13.20;99.90;;;;;;4958312;28;20184;-73
2023/05/25 11:01:07;;;;;;;24.63;10.68;;;13.50;99.90;;;;;;4940242;28;20051;-73
2023/05/25 11:03:52;;;;;;;19.88;9.68;;;13.60;99.90;;;;;;4924404;29;20047;-73
2023/05/25 11:06:44;;;;;;;16.55;8.95;;;13.60;99.90;;;;;;4938545;29;20047;-73
2023/05/25 11:09:26;;;;;;;19.20;9.65;;;13.60;99.90;;;;;;4942254;28;20134;-73
2023/05/25 11:12:00;;;;;;;17.67;9.55;;;13.60;99.90;;;;;;4925403;29;20146;-73
2023/05/25 11:14:28;;;;;;;19.00;8.48;;;13.70;99.90;;;;;;4940087;28;20523;-73
2023/05/25 11:17:03;;;;;;;;;;;13.90;99.90;;;;;;4963731;28;20046;-73
2023/05/25 11:19:50;;;;;;;17.90;7.70;;;14.00;99.90;;;;;;4957386;29;19971;-73
2023/05/25 11:22:19;;;;;;;18.50;8.23;;;14.30;99.90;;;;;;4919555;29;20143;-73
2023/05/25 11:24:48;;;;;;;20.85;8.77;;;14.40;99.90;;;;;;4920763;29;20039;-73
2023/05/25 11:27:14;;;;;;;16.60;8.32;;;14.50;99.90;;;;;;4924570;29;20463;-73
2023/05/25 11:29:41;;;;;;;17.95;8.35;;;14.50;99.90;;;;;;4934244;29;20064;-73
2023/05/25 11:32:13;;;;;;;17.92;8.30;;;14.60;99.90;;;;;;4935796;29;20610;-73
2023/05/25 11:34:40;;;;;;;17.48;8.82;;;14.80;99.90;;;;;;4923998;29;20577;-73
2023/05/25 11:37:08;;;;;;;20.77;8.32;;;14.90;99.90;;;;;;4934594;29;20131;-73
2023/05/25 11:39:34;;;;;;;22.90;8.35;;;14.90;99.90;;;;;;4922278;29;20047;-73
2023/05/25 11:42:03;;;;;;;18.38;7.90;;;14.60;99.90;;;;;;4914289;29;20063;-73
2023/05/25 11:44:35;;;;;;;18.67;7.82;;;14.60;99.90;;;;;;4921637;29;20402;-73
2023/05/25 11:47:17;;;;;;;17.98;8.50;;;14.50;99.90;;;;;;4918337;29;20043;-73
2023/05/25 11:49:48;;;;;;;19.15;7.75;;;14.40;99.90;;;;;;4938712;29;20039;-73
2023/05/25 11:52:15;;;;;;;15.98;8.10;;;14.60;99.90;;;;;;4917772;29;20675;-73
2023/05/25 11:54:40;;;;;;;14.10;7.50;;;14.70;99.90;;;;;;4925035;29;20062;-73
2023/05/25 11:57:20;;;;;;;15.52;7.30;;;14.90;99.90;;;;;;4918380;29;20067;-73
2023/05/25 11:59:49;;;;;;;17.20;8.10;;;15.20;99.90;;;;;;4919643;29;20502;-73
2023/05/25 12:02:15;;;;;;;17.05;7.68;;;15.30;99.90;;;;;;4938736;29;20051;-73
2023/05/25 12:04:42;;;;;;;15.10;7.50;;;15.40;99.90;;;;;;4921852;29;20059;-73
2023/05/25 12:07:08;;;;;;;13.38;7.55;;;15.30;99.90;;;;;;4930665;29;20047;-73
2023/05/25 12:09:35;;;;;;;15.35;7.80;;;15.30;99.90;;;;;;4936273;29;20083;-73
2023/05/25 12:12:02;;;;;;;18.55;6.93;;;14.90;99.90;;;;;;4907942;29;20103;-73
2023/05/25 12:14:28;;;;;;;19.05;7.75;;;14.70;99.90;;;;;;4922597;29;20351;-73
2023/05/25 12:16:54;;;;;;;18.10;7.80;;;14.70;99.90;;;;;;4917936;29;20523;-73
2023/05/25 12:19:20;;;;;;;15.88;6.72;;;14.80;99.90;;;;;;4938721;29;20131;-73
2023/05/25 12:21:46;;;;;;;15.65;7.15;;;15.20;99.90;;;;;;4918381;29;20047;-73
2023/05/25 12:24:12;;;;;;;14.82;6.60;;;15.10;99.90;;;;;;4916643;29;20064;-73
2023/05/25 12:26:47;;;;;;;20.30;6.95;;;15.00;99.90;;;;;;4933731;29;20064;-73
2023/05/25 12:29:13;;;;;;;17.70;7.53;;;15.00;99.90;;;;;;4918051;29;20094;-73
2023/05/25 12:31:39;;;;;;;16.42;7.20;;;14.70;99.90;;;;;;4917559;29;20043;-73
2023/05/25 12:34:12;;;;;;;12.75;6.13;;;14.80;99.90;;;;;;4921991;29;20055;-73